Time;durP1;ratioP1;P1;durP2;ratioP2;P2;SDS_P1;SDS_P2;PMS_P1;PMS_P2;Temp;Humidity;BMP_temperature;BMP_pressure;BME280_temperature;BME280_humidity;BME280_pressure;Samples;Min_cycle;Max_cycle;Signal;HPM_P1;HPM_P2
2021/10/19 00:00:15;;;;;;;6.32;4.07;;;11.30;72.00;;;;;;2350740;53;20920;-71
2021/10/19 00:02:44;;;;;;;5.87;3.95;;;11.30;72.10;;;;;;2397159;53;20965;-73
2021/10/19 00:05:10;;;;;;;5.75;3.95;;;11.20;72.00;;;;;;2343830;53;20970;-73
2021/10/19 00:07:37;;;;;;;6.65;4.68;;;11.20;72.00;;;;;;2349668;53;20940;-73
2021/10/19 00:10:06;;;;;;;6.22;4.50;;;11.20;72.10;;;;;;2349479;53;21001;-70
2021/10/19 00:12:33;;;;;;;8.13;4.70;;;11.20;72.20;;;;;;2472037;52;21044;-70
2021/10/19 00:15:02;;;;;;;6.97;4.37;;;11.20;72.20;;;;;;2327342;54;21046;-72
2021/10/19 00:17:29;;;;;;;7.20;4.70;;;11.20;72.20;;;;;;2326515;54;21092;-71
2021/10/19 00:19:55;;;;;;;9.90;4.62;;;11.20;72.20;;;;;;2320890;54;21807;-72
2021/10/19 00:22:24;;;;;;;7.43;5.03;;;11.20;72.20;;;;;;2363537;53;22064;-70
2021/10/19 00:24:50;;;;;;;7.03;4.40;;;11.20;72.20;;;;;;2323537;53;21096;-69
2021/10/19 00:27:18;;;;;;;9.45;5.00;;;11.20;72.20;;;;;;2497455;52;21608;-69
2021/10/19 00:29:44;;;;;;;7.95;4.78;;;11.20;72.30;;;;;;2350088;53;21530;-72
2021/10/19 00:32:14;;;;;;;7.22;4.87;;;11.20;72.40;;;;;;2406208;52;21013;-71
2021/10/19 00:34:40;;;;;;;6.70;4.20;;;11.20;72.50;;;;;;2410545;53;20974;-71
2021/10/19 00:37:08;;;;;;;6.55;4.03;;;11.20;72.60;;;;;;2477747;53;20982;-71
2021/10/19 00:39:34;;;;;;;6.62;4.50;;;11.20;72.60;;;;;;2330998;53;20996;-71
2021/10/19 00:42:01;;;;;;;6.62;4.43;;;11.20;72.60;;;;;;2419439;52;20995;-73
2021/10/19 00:44:28;;;;;;;7.22;4.80;;;11.20;72.60;;;;;;2358183;53;20957;-72
2021/10/19 00:46:57;;;;;;;6.12;4.18;;;11.20;72.60;;;;;;2348241;53;21003;-73
2021/10/19 00:49:23;;;;;;;6.50;3.90;;;11.20;72.40;;;;;;2342583;53;21038;-70
2021/10/19 00:51:50;;;;;;;6.15;4.25;;;11.20;72.30;;;;;;2420392;53;20924;-72
2021/10/19 00:54:18;;;;;;;6.40;3.95;;;11.20;72.30;;;;;;2345131;53;20967;-73
2021/10/19 00:56:44;;;;;;;6.07;4.05;;;11.20;72.40;;;;;;2348182;53;20953;-70
2021/10/19 00:59:10;;;;;;;6.78;4.32;;;11.20;72.50;;;;;;2345343;53;20935;-71
2021/10/19 01:01:37;;;;;;;5.82;3.60;;;11.20;72.60;;;;;;2365060;52;21530;-72
2021/10/19 01:04:03;;;;;;;5.57;4.10;;;11.20;72.70;;;;;;2369590;54;21008;-73
2021/10/19 01:06:32;;;;;;;5.82;3.62;;;11.20;72.70;;;;;;2582374;53;20992;-69
2021/10/19 01:08:59;;;;;;;6.03;3.47;;;11.20;72.70;;;;;;2353089;53;21021;-73
2021/10/19 01:11:25;;;;;;;6.15;3.92;;;11.20;72.80;;;;;;2347883;53;22066;-71
2021/10/19 01:13:53;;;;;;;6.87;4.37;;;11.30;73.00;;;;;;2358769;53;21905;-74
2021/10/19 01:16:19;;;;;;;5.82;3.67;;;11.20;72.90;;;;;;2351751;53;20910;-69
2021/10/19 01:18:46;;;;;;;6.10;3.92;;;11.30;72.90;;;;;;2424237;52;21869;-70
2021/10/19 01:21:12;;;;;;;7.78;4.00;;;11.30;72.90;;;;;;2353440;53;21059;-73
2021/10/19 01:23:38;;;;;;;7.30;3.70;;;11.30;72.80;;;;;;2345628;53;21458;-72
2021/10/19 01:26:07;;;;;;;5.90;4.10;;;11.30;72.80;;;;;;2350304;53;21017;-70
2021/10/19 01:28:34;;;;;;;6.32;3.90;;;11.30;72.80;;;;;;2325218;54;20953;-73
2021/10/19 01:31:01;;;;;;;6.90;4.43;;;11.30;72.80;;;;;;2571201;52;21933;-73
2021/10/19 01:33:28;;;;;;;6.28;4.12;;;11.30;72.80;;;;;;2345846;53;21316;-73
2021/10/19 01:35:55;;;;;;;7.80;4.00;;;11.30;72.80;;;;;;2342456;54;21008;-73
2021/10/19 01:38:23;;;;;;;5.25;3.50;;;11.30;72.80;;;;;;2330624;54;21328;-71
2021/10/19 01:40:51;;;;;;;4.78;3.10;;;11.30;72.80;;;;;;2336952;53;20980;-70
2021/10/19 01:43:20;;;;;;;5.53;3.67;;;11.30;72.90;;;;;;2373289;53;20936;-71
2021/10/19 01:45:54;;;;;;;5.55;3.95;;;11.40;73.00;;;;;;2351461;53;20948;-73
2021/10/19 01:48:26;;;;;;;5.03;3.80;;;11.40;72.90;;;;;;2346629;53;20986;-70
2021/10/19 01:50:53;;;;;;;6.65;3.78;;;11.40;73.00;;;;;;2347809;53;21089;-69
2021/10/19 01:53:20;;;;;;;5.55;3.80;;;11.40;73.00;;;;;;2341233;53;20961;-73
2021/10/19 01:55:48;;;;;;;5.43;3.33;;;11.40;72.90;;;;;;2423378;53;21046;-72
2021/10/19 01:58:15;;;;;;;5.68;3.70;;;11.40;72.90;;;;;;2365493;54;20937;-70
2021/10/19 02:00:44;;;;;;;5.35;3.53;;;11.40;72.90;;;;;;2324957;54;20981;-72
2021/10/19 02:03:12;;;;;;;8.10;4.32;;;11.40;72.90;;;;;;2341319;53;20943;-70
2021/10/19 02:05:38;;;;;;;6.82;3.90;;;11.40;72.90;;;;;;2332804;54;20981;-72
2021/10/19 02:08:07;;;;;;;7.20;4.12;;;11.50;72.90;;;;;;2417232;53;21443;-72
2021/10/19 02:10:34;;;;;;;5.35;3.40;;;11.50;72.90;;;;;;2373088;53;21024;-70
2021/10/19 02:13:04;;;;;;;5.55;3.75;;;11.50;73.00;;;;;;2341126;53;21012;-71
2021/10/19 02:15:31;;;;;;;4.80;3.37;;;11.50;73.00;;;;;;2346408;53;21074;-71
2021/10/19 02:17:57;;;;;;;5.93;3.60;;;11.50;73.10;;;;;;2324467;54;21062;-72
2021/10/19 02:20:23;;;;;;;5.45;3.53;;;11.50;73.10;;;;;;2386661;53;21022;-71
2021/10/19 02:22:50;;;;;;;6.45;3.87;;;11.50;73.00;;;;;;2358859;53;20957;-73
2021/10/19 02:25:17;;;;;;;5.82;3.85;;;11.50;73.00;;;;;;2320127;54;20968;-71
2021/10/19 02:27:43;;;;;;;5.80;3.80;;;11.50;72.90;;;;;;2332087;53;21261;-72
2021/10/19 02:30:10;;;;;;;5.43;3.45;;;11.50;73.00;;;;;;2330819;54;21699;-74
2021/10/19 02:32:39;;;;;;;5.53;3.30;;;11.50;73.10;;;;;;2477798;53;21077;-72
2021/10/19 02:35:07;;;;;;;5.25;3.10;;;11.50;73.10;;;;;;2357646;53;20934;-73
2021/10/19 02:37:33;;;;;;;6.53;3.40;;;11.50;73.10;;;;;;2346836;53;21073;-71
2021/10/19 02:40:00;;;;;;;5.97;3.80;;;11.60;73.20;;;;;;2489750;53;21002;-72
2021/10/19 02:42:26;;;;;;;6.87;3.35;;;11.60;73.20;;;;;;2350854;53;20954;-70
2021/10/19 02:44:52;;;;;;;5.22;2.87;;;11.60;73.10;;;;;;2345605;53;20991;-71
2021/10/19 02:47:19;;;;;;;5.80;3.30;;;11.60;73.20;;;;;;2343095;53;20977;-73
2021/10/19 02:49:46;;;;;;;7.15;3.40;;;11.60;73.20;;;;;;2326260;54;20941;-71
2021/10/19 02:52:13;;;;;;;4.30;3.05;;;11.60;73.20;;;;;;2321087;54;21655;-72
2021/10/19 02:54:39;;;;;;;5.03;2.80;;;11.60;73.30;;;;;;2320588;54;21465;-72
2021/10/19 02:57:06;;;;;;;8.38;3.78;;;11.60;73.30;;;;;;2399844;53;20983;-72
2021/10/19 02:59:32;;;;;;;4.25;2.70;;;11.70;73.40;;;;;;2320611;54;21000;-72
2021/10/19 03:01:59;;;;;;;5.65;3.15;;;11.70;73.40;;;;;;2328150;54;21958;-72
2021/10/19 03:04:26;;;;;;;5.93;3.50;;;11.70;73.30;;;;;;2398845;53;20943;-70
2021/10/19 03:06:55;;;;;;;7.03;3.10;;;11.70;73.30;;;;;;2340534;53;21009;-70
2021/10/19 03:09:21;;;;;;;5.18;3.33;;;11.70;73.30;;;;;;2318873;54;20969;-70
2021/10/19 03:11:47;;;;;;;5.65;3.42;;;11.70;73.20;;;;;;2320497;54;20990;-71
2021/10/19 03:14:14;;;;;;;5.80;3.45;;;11.80;73.30;;;;;;2438789;52;20936;-71
2021/10/19 03:16:41;;;;;;;4.62;3.12;;;11.80;73.30;;;;;;2347039;53;21042;-70
2021/10/19 03:19:07;;;;;;;6.50;3.55;;;11.80;73.30;;;;;;2346587;53;21002;-72
2021/10/19 03:21:34;;;;;;;4.60;2.90;;;11.80;73.30;;;;;;2347723;53;21000;-70
2021/10/19 03:24:00;;;;;;;5.72;3.37;;;11.80;73.30;;;;;;2339717;53;21027;-70
2021/10/19 03:26:29;;;;;;;4.85;3.12;;;11.80;73.30;;;;;;2321717;54;21838;-71
2021/10/19 03:28:56;;;;;;;5.03;3.08;;;11.80;73.30;;;;;;2332396;53;20987;-72
2021/10/19 03:31:25;;;;;;;5.07;3.22;;;11.80;73.30;;;;;;2351053;53;21011;-73
2021/10/19 03:33:52;;;;;;;5.35;3.03;;;11.90;73.30;;;;;;2357493;53;20995;-73
2021/10/19 03:36:21;;;;;;;4.97;2.80;;;11.80;73.20;;;;;;2360908;53;20975;-73
2021/10/19 03:38:47;;;;;;;4.30;2.85;;;11.90;73.40;;;;;;2351229;53;21029;-72
2021/10/19 03:41:13;;;;;;;5.50;3.33;;;11.90;73.40;;;;;;2525516;52;21015;-70
2021/10/19 03:43:40;;;;;;;6.65;3.83;;;11.90;73.40;;;;;;2379057;53;21459;-71
2021/10/19 03:46:07;;;;;;;4.53;3.05;;;11.90;73.40;;;;;;2327221;54;20969;-72
2021/10/19 03:48:34;;;;;;;5.50;3.47;;;11.90;73.40;;;;;;2326703;54;21050;-72
2021/10/19 03:51:03;;;;;;;5.35;3.28;;;11.90;73.50;;;;;;2397550;53;21081;-70
2021/10/19 03:53:30;;;;;;;5.60;3.30;;;11.90;73.40;;;;;;2415474;53;20958;-72
2021/10/19 03:55:56;;;;;;;5.57;3.25;;;12.00;73.40;;;;;;2414627;53;20924;-70
2021/10/19 03:58:25;;;;;;;5.68;3.40;;;12.00;73.40;;;;;;2479052;53;20992;-74
2021/10/19 04:00:52;;;;;;;5.65;3.33;;;12.00;73.40;;;;;;2346173;53;21042;-71
2021/10/19 04:03:18;;;;;;;5.50;3.35;;;12.00;73.40;;;;;;2362868;53;20949;-73
2021/10/19 04:05:44;;;;;;;7.57;4.00;;;12.00;73.40;;;;;;2332937;53;21567;-72
2021/10/19 04:08:12;;;;;;;6.22;3.67;;;12.00;73.40;;;;;;2328769;54;21017;-70
2021/10/19 04:10:39;;;;;;;6.35;3.95;;;12.00;73.40;;;;;;2325962;54;20945;-73
2021/10/19 04:13:05;;;;;;;8.27;4.55;;;12.00;73.30;;;;;;2338352;53;21701;-71
2021/10/19 04:15:34;;;;;;;10.30;5.93;;;12.10;73.40;;;;;;2372360;53;20949;-70
2021/10/19 04:18:00;;;;;;;8.35;4.70;;;12.10;73.40;;;;;;2321716;54;20941;-74
2021/10/19 04:20:27;;;;;;;9.70;5.68;;;12.00;73.30;;;;;;2329706;53;22309;-74
2021/10/19 04:22:53;;;;;;;7.53;4.15;;;12.10;73.50;;;;;;2351993;53;21494;-71
2021/10/19 04:25:23;;;;;;;6.53;3.75;;;12.10;73.50;;;;;;2360173;53;20914;-70
2021/10/19 04:27:50;;;;;;;6.12;3.70;;;12.10;73.50;;;;;;2348699;53;21029;-73
2021/10/19 04:30:16;;;;;;;4.82;3.17;;;12.10;73.50;;;;;;2329856;54;21598;-72
2021/10/19 04:32:42;;;;;;;6.57;4.28;;;12.10;73.50;;;;;;2341234;53;20956;-73
2021/10/19 04:35:09;;;;;;;6.22;3.80;;;12.20;73.60;;;;;;2322479;54;21023;-70
2021/10/19 04:37:35;;;;;;;5.90;3.62;;;12.20;73.60;;;;;;2323728;54;20957;-71
2021/10/19 04:40:02;;;;;;;6.28;3.95;;;12.20;73.60;;;;;;2318492;54;21360;-73
2021/10/19 04:42:33;;;;;;;10.05;5.62;;;12.20;73.70;;;;;;2345446;53;21013;-72
2021/10/19 04:45:00;;;;;;;6.87;4.55;;;12.20;73.70;;;;;;2355673;53;21050;-74
2021/10/19 04:47:27;;;;;;;7.37;4.95;;;12.30;73.90;;;;;;2518099;53;20953;-72
2021/10/19 04:49:58;;;;;;;9.15;5.40;;;12.30;73.90;;;;;;2364556;53;20971;-73
2021/10/19 04:52:24;;;;;;;7.87;5.45;;;12.30;73.90;;;;;;2346170;53;22008;-71
2021/10/19 04:54:51;;;;;;;9.07;6.10;;;12.30;74.70;;;;;;2351327;53;21017;-72
2021/10/19 04:57:17;;;;;;;7.78;5.10;;;12.30;73.90;;;;;;2390675;53;21840;-72
2021/10/19 04:59:44;;;;;;;7.57;5.12;;;12.30;73.90;;;;;;2326288;54;20941;-72
2021/10/19 05:02:10;;;;;;;9.80;5.12;;;12.40;74.00;;;;;;2340431;53;20951;-73
2021/10/19 05:04:37;;;;;;;6.53;4.47;;;12.40;73.90;;;;;;2377533;53;20987;-71
2021/10/19 05:07:03;;;;;;;8.73;4.68;;;12.40;73.90;;;;;;2324129;54;20957;-70
2021/10/19 05:09:29;;;;;;;7.32;3.90;;;12.40;73.90;;;;;;2319018;54;20993;-73
2021/10/19 05:11:56;;;;;;;6.22;3.92;;;12.40;74.00;;;;;;2323001;54;21595;-71
2021/10/19 05:14:36;;;;;;;6.65;4.40;;;12.50;74.20;;;;;;2318832;54;21471;-71
2021/10/19 05:17:02;;;;;;;6.20;4.07;;;12.50;74.00;;;;;;2322676;53;21001;-71
2021/10/19 05:19:29;;;;;;;6.05;3.67;;;12.50;74.10;;;;;;2341142;53;21927;-72
2021/10/19 05:21:55;;;;;;;5.62;3.67;;;12.50;74.00;;;;;;2320156;54;21016;-73
2021/10/19 05:24:24;;;;;;;5.15;3.20;;;12.60;74.20;;;;;;2346030;53;20937;-72
2021/10/19 05:26:51;;;;;;;5.15;3.20;;;12.50;74.10;;;;;;2346471;53;21058;-73
2021/10/19 05:29:18;;;;;;;4.95;2.60;;;12.60;74.30;;;;;;2351064;53;21054;-71
2021/10/19 05:31:44;;;;;;;5.22;3.15;;;12.60;74.30;;;;;;2354039;53;21034;-71
2021/10/19 05:34:11;;;;;;;7.00;3.95;;;12.60;74.20;;;;;;2347205;53;20985;-71
2021/10/19 05:36:37;;;;;;;5.50;3.80;;;12.60;74.20;;;;;;2345801;53;21038;-71
2021/10/19 05:39:07;;;;;;;5.75;3.70;;;12.70;74.30;;;;;;2424763;52;21014;-75
2021/10/19 05:41:33;;;;;;;5.12;3.28;;;12.70;74.30;;;;;;2353909;53;20984;-74
2021/10/19 05:44:00;;;;;;;6.07;3.05;;;12.70;74.30;;;;;;2430660;53;21104;-71
2021/10/19 05:46:26;;;;;;;6.12;2.78;;;12.70;74.30;;;;;;2324864;53;21797;-71
2021/10/19 05:48:52;;;;;;;4.18;2.80;;;12.80;74.50;;;;;;2347782;53;21021;-72
2021/10/19 05:51:19;;;;;;;5.32;3.28;;;12.80;74.50;;;;;;2411728;52;21050;-72
2021/10/19 05:53:45;;;;;;;5.07;3.03;;;12.80;74.50;;;;;;2375892;52;22244;-71
2021/10/19 05:56:12;;;;;;;4.87;3.15;;;12.80;74.50;;;;;;2332969;53;21577;-70
2021/10/19 05:58:39;;;;;;;4.75;2.90;;;12.90;74.60;;;;;;2396537;53;20983;-73
2021/10/19 06:01:05;;;;;;;7.25;2.78;;;12.90;74.60;;;;;;2324913;53;21562;-72
2021/10/19 06:03:31;;;;;;;4.78;3.33;;;12.90;74.60;;;;;;2347583;53;20932;-71
2021/10/19 06:05:58;;;;;;;4.40;2.80;;;12.90;74.60;;;;;;2359675;53;20954;-71
2021/10/19 06:08:24;;;;;;;4.57;2.97;;;13.00;74.80;;;;;;2336591;53;20931;-70
2021/10/19 06:10:51;;;;;;;4.47;2.80;;;13.00;74.80;;;;;;2347937;53;21059;-74
2021/10/19 06:13:17;;;;;;;4.53;3.00;;;13.00;74.80;;;;;;2359351;53;21484;-72
2021/10/19 06:15:46;;;;;;;4.68;2.80;;;13.10;74.80;;;;;;2329914;54;21904;-73
2021/10/19 06:18:13;;;;;;;5.80;3.22;;;13.10;74.80;;;;;;2331846;53;21065;-71
2021/10/19 06:20:43;;;;;;;5.05;3.15;;;13.10;74.80;;;;;;2345430;53;21082;-71
2021/10/19 06:23:11;;;;;;;4.53;2.83;;;13.20;75.00;;;;;;2352670;53;20970;-70
2021/10/19 06:25:38;;;;;;;6.80;2.97;;;13.20;74.90;;;;;;2401682;52;21909;-71
2021/10/19 06:28:04;;;;;;;5.25;3.20;;;13.20;74.90;;;;;;2350079;53;20963;-72
2021/10/19 06:30:31;;;;;;;5.43;3.10;;;13.30;75.00;;;;;;2355377;53;20988;-72
2021/10/19 06:32:57;;;;;;;4.90;3.17;;;13.30;75.00;;;;;;2381788;53;21003;-72
2021/10/19 06:35:24;;;;;;;4.72;2.87;;;13.30;74.90;;;;;;2387431;53;21002;-72
2021/10/19 06:37:50;;;;;;;5.60;3.05;;;13.30;74.90;;;;;;2398620;52;21007;-73
2021/10/19 06:40:18;;;;;;;5.12;3.30;;;13.40;75.00;;;;;;2321956;54;20977;-72
2021/10/19 06:42:45;;;;;;;4.95;3.00;;;13.40;75.00;;;;;;2328913;53;20959;-73
2021/10/19 06:45:12;;;;;;;4.90;3.10;;;13.40;75.70;;;;;;2348875;53;20962;-72
2021/10/19 06:47:39;;;;;;;6.05;2.80;;;13.50;75.10;;;;;;2434911;52;21916;-72
2021/10/19 06:50:07;;;;;;;5.20;2.42;;;13.50;75.00;;;;;;2327535;54;20941;-74
2021/10/19 06:52:36;;;;;;;3.95;2.42;;;13.50;75.00;;;;;;2390505;53;20941;-71
2021/10/19 06:55:04;;;;;;;4.97;2.87;;;13.50;75.10;;;;;;2319727;54;21124;-73
2021/10/19 06:57:31;;;;;;;5.72;3.80;;;13.60;75.10;;;;;;2369737;54;21437;-73
2021/10/19 07:00:00;;;;;;;7.93;5.10;;;13.60;75.10;;;;;;2341767;53;20993;-70
2021/10/19 07:02:28;;;;;;;11.18;5.60;;;13.60;75.10;;;;;;2324562;54;21037;-71
2021/10/19 07:04:54;;;;;;;7.80;5.28;;;13.70;75.10;;;;;;2378724;53;21498;-72
2021/10/19 07:07:21;;;;;;;10.35;6.60;;;13.70;75.10;;;;;;2367612;53;21029;-71
2021/10/19 07:09:47;;;;;;;9.10;5.53;;;13.70;75.10;;;;;;2345706;53;21872;-73
2021/10/19 07:12:13;;;;;;;7.87;4.90;;;13.70;75.00;;;;;;2584215;52;20950;-74
2021/10/19 07:14:40;;;;;;;8.50;4.30;;;13.80;74.90;;;;;;2351977;53;20954;-73
2021/10/19 07:17:07;;;;;;;7.32;4.43;;;13.80;74.90;;;;;;2351045;53;20978;-71
2021/10/19 07:19:36;;;;;;;7.20;4.15;;;13.80;74.90;;;;;;2334755;53;20970;-74
2021/10/19 07:22:03;;;;;;;6.28;3.85;;;13.80;74.90;;;;;;2367235;53;20960;-71
2021/10/19 07:24:30;;;;;;;6.65;3.80;;;13.80;75.00;;;;;;2345123;53;20958;-70
2021/10/19 07:26:57;;;;;;;6.00;3.50;;;13.90;75.10;;;;;;2346481;53;21450;-73
2021/10/19 07:29:23;;;;;;;5.82;3.67;;;13.90;75.20;;;;;;2356687;53;20998;-72
2021/10/19 07:31:50;;;;;;;6.60;3.95;;;13.90;75.20;;;;;;2320638;54;20965;-71
2021/10/19 07:34:16;;;;;;;7.12;4.45;;;14.00;75.30;;;;;;2334044;54;21017;-74
2021/10/19 07:36:42;;;;;;;7.37;4.10;;;14.00;75.40;;;;;;2324190;54;21024;-71
2021/10/19 07:39:09;;;;;;;6.05;3.92;;;14.00;75.40;;;;;;2325660;54;21045;-71
2021/10/19 07:41:39;;;;;;;5.85;3.45;;;14.10;75.50;;;;;;2321245;54;21513;-72
2021/10/19 07:44:08;;;;;;;5.50;3.55;;;14.10;75.40;;;;;;2324755;54;20968;-71
2021/10/19 07:46:38;;;;;;;5.53;3.17;;;14.10;75.40;;;;;;2555317;52;21849;-72
2021/10/19 07:49:05;;;;;;;6.12;3.70;;;14.20;75.60;;;;;;2321286;54;20949;-72
2021/10/19 07:51:31;;;;;;;5.78;3.28;;;14.20;75.70;;;;;;2342810;53;20939;-69
2021/10/19 07:53:58;;;;;;;8.65;3.33;;;14.30;76.10;;;;;;2334304;53;20999;-74
2021/10/19 07:56:24;;;;;;;6.78;4.18;;;14.30;76.30;;;;;;2345697;53;21974;-74
2021/10/19 07:58:51;;;;;;;7.05;4.32;;;14.40;76.60;;;;;;2364844;53;20943;-71
2021/10/19 08:01:18;;;;;;;5.72;3.53;;;14.50;76.80;;;;;;2353483;53;21039;-74
2021/10/19 08:03:48;;;;;;;5.53;3.97;;;14.50;76.90;;;;;;2351977;53;20985;-73
2021/10/19 08:06:15;;;;;;;7.25;4.18;;;14.60;77.00;;;;;;2360528;53;20954;-73
2021/10/19 08:08:42;;;;;;;6.95;4.32;;;14.70;77.30;;;;;;2342931;53;20971;-73
2021/10/19 08:11:08;;;;;;;5.70;3.72;;;14.80;77.50;;;;;;2479602;53;20959;-74
2021/10/19 08:13:40;;;;;;;4.85;3.10;;;14.90;77.70;;;;;;2346858;53;20963;-71
2021/10/19 08:16:06;;;;;;;;;;;15.00;77.70;;;;;;2349805;54;21097;-74
2021/10/19 08:18:33;;;;;;;5.05;2.55;;;15.10;77.00;;;;;;2321096;54;20171;-74
2021/10/19 08:21:02;;;;;;;5.18;3.20;;;15.20;77.80;;;;;;2322407;54;21945;-70
2021/10/19 08:23:29;;;;;;;5.32;3.55;;;15.30;77.80;;;;;;2323702;54;20977;-71
2021/10/19 08:25:55;;;;;;;5.37;3.58;;;15.40;77.90;;;;;;2318679;54;21509;-74
2021/10/19 08:28:24;;;;;;;5.90;3.50;;;15.40;77.80;;;;;;2322747;54;20945;-72
2021/10/19 08:30:51;;;;;;;5.20;3.40;;;15.50;77.90;;;;;;2364271;53;21029;-71
2021/10/19 08:33:19;;;;;;;6.05;3.28;;;15.60;77.90;;;;;;2321418;54;21000;-72
2021/10/19 08:35:45;;;;;;;5.22;3.28;;;15.70;78.00;;;;;;2323594;54;20983;-75
2021/10/19 08:38:13;;;;;;;5.18;2.87;;;15.80;78.10;;;;;;2323381;54;21021;-72
2021/10/19 08:40:43;;;;;;;4.53;2.62;;;15.90;78.20;;;;;;2362461;54;20929;-71
2021/10/19 08:43:10;;;;;;;4.50;2.70;;;16.00;78.10;;;;;;2329438;53;21011;-73
2021/10/19 08:45:36;;;;;;;4.15;2.55;;;16.10;78.20;;;;;;2407550;53;21587;-71
2021/10/19 08:48:03;;;;;;;5.03;3.33;;;16.20;78.20;;;;;;2352617;53;20918;-73
2021/10/19 08:50:29;;;;;;;4.68;2.50;;;16.30;78.20;;;;;;2340731;53;21050;-72
2021/10/19 08:52:57;;;;;;;5.45;2.70;;;16.40;78.20;;;;;;2334145;53;21121;-73
2021/10/19 08:55:23;;;;;;;4.35;2.78;;;16.50;78.30;;;;;;2355874;53;20986;-70
2021/10/19 08:57:52;;;;;;;5.95;3.58;;;16.60;78.30;;;;;;2394621;53;1297432;-73
2021/10/19 09:00:24;;;;;;;5.75;3.30;;;16.80;78.30;;;;;;2418811;52;20994;-73
2021/10/19 09:02:53;;;;;;;4.62;2.85;;;16.80;78.00;;;;;;2357061;53;21013;-73
2021/10/19 09:05:24;;;;;;;6.55;3.25;;;17.00;77.60;;;;;;2349550;53;21494;-73
2021/10/19 09:08:33;;;;;;;4.80;2.87;;;17.00;77.50;;;;;;2328354;54;20925;-71
2021/10/19 09:10:59;;;;;;;4.80;2.75;;;17.10;76.20;;;;;;2332167;53;20967;-72
2021/10/19 09:13:26;;;;;;;5.28;2.47;;;17.20;77.30;;;;;;2367643;52;20998;-74
2021/10/19 09:15:52;;;;;;;4.55;2.20;;;17.20;77.10;;;;;;2423709;53;21450;-73
2021/10/19 09:18:21;;;;;;;5.28;2.33;;;17.30;77.80;;;;;;2346185;53;21920;-73
2021/10/19 09:20:56;;;;;;;5.32;2.58;;;17.40;76.90;;;;;;2461979;52;20961;-73
2021/10/19 09:23:24;;;;;;;4.00;2.40;;;17.40;76.50;;;;;;2327489;54;20993;-72
2021/10/19 09:25:52;;;;;;;4.12;2.47;;;17.50;76.90;;;;;;2318770;54;21366;-72
2021/10/19 09:29:22;;;;;;;4.12;2.35;;;17.50;76.80;;;;;;2334082;53;20950;-71
2021/10/19 09:31:52;;;;;;;5.10;2.37;;;17.60;75.60;;;;;;2338144;53;21008;-72
2021/10/19 09:34:21;;;;;;;7.87;2.20;;;17.70;76.60;;;;;;2326026;54;21654;-74
2021/10/19 09:36:51;;;;;;;4.25;2.35;;;17.70;76.70;;;;;;2370185;53;21703;-72
2021/10/19 09:39:37;;;;;;;5.35;2.55;;;17.80;76.70;;;;;;2321178;54;21648;-73
2021/10/19 09:42:07;;;;;;;4.20;2.60;;;17.80;76.20;;;;;;2383990;53;21352;-73
2021/10/19 09:44:34;;;;;;;3.50;2.20;;;17.90;76.80;;;;;;2348346;52;20981;-73
2021/10/19 09:47:00;;;;;;;3.85;2.05;;;17.90;76.90;;;;;;2399542;53;21120;-73
2021/10/19 09:49:28;;;;;;;4.65;2.47;;;18.00;77.10;;;;;;2441877;52;21530;-72
2021/10/19 09:51:56;;;;;;;4.32;2.58;;;18.10;77.10;;;;;;2372842;53;21057;-72
2021/10/19 09:54:24;;;;;;;4.68;2.53;;;18.10;77.00;;;;;;2471960;52;21477;-72
2021/10/19 09:56:50;;;;;;;5.05;2.35;;;18.30;77.60;;;;;;2445889;52;20998;-71
2021/10/19 09:59:17;;;;;;;4.75;2.62;;;18.40;77.80;;;;;;2341149;53;21038;-73
2021/10/19 10:01:45;;;;;;;5.00;3.00;;;18.50;77.70;;;;;;2340678;53;21026;-73
2021/10/19 10:04:12;;;;;;;4.72;2.50;;;18.60;77.20;;;;;;2352879;54;21606;-75
2021/10/19 10:06:39;;;;;;;4.20;2.50;;;18.70;77.30;;;;;;2338265;53;21002;-73
2021/10/19 10:09:05;;;;;;;4.15;2.45;;;18.80;77.20;;;;;;2393198;53;20967;-74
2021/10/19 10:11:31;;;;;;;3.95;2.22;;;18.90;77.00;;;;;;2351863;52;21791;-73
2021/10/19 10:14:12;;;;;;;4.07;2.47;;;19.00;76.70;;;;;;2342797;54;22003;-72
2021/10/19 10:16:49;;;;;;;5.22;2.83;;;19.10;75.60;;;;;;2383298;52;21013;-73
2021/10/19 10:19:19;;;;;;;4.60;2.40;;;19.20;75.70;;;;;;2342626;53;21030;-74
2021/10/19 10:21:47;;;;;;;3.47;2.20;;;19.30;75.90;;;;;;2348837;53;21090;-73
2021/10/19 10:24:13;;;;;;;4.32;2.20;;;19.40;75.70;;;;;;2342080;53;20952;-73
2021/10/19 10:26:39;;;;;;;6.05;2.87;;;19.40;75.50;;;;;;2340233;54;21045;-74
2021/10/19 10:29:10;;;;;;;3.90;2.10;;;19.50;75.40;;;;;;2346057;53;21246;-73
2021/10/19 10:31:50;;;;;;;3.90;2.22;;;19.50;75.00;;;;;;2319093;54;21012;-73
2021/10/19 10:34:16;;;;;;;4.05;2.17;;;19.60;74.60;;;;;;2463025;53;21025;-71
2021/10/19 10:36:47;;;;;;;4.47;2.30;;;19.70;75.50;;;;;;2342941;53;20993;-73
2021/10/19 10:39:14;;;;;;;4.18;2.42;;;19.70;75.10;;;;;;2350462;53;21091;-73
2021/10/19 10:41:45;;;;;;;4.12;2.33;;;19.80;74.90;;;;;;2371597;53;21018;-75
2021/10/19 10:44:12;;;;;;;3.87;2.17;;;19.80;74.00;;;;;;2346330;53;20962;-76
2021/10/19 10:46:40;;;;;;;4.53;2.30;;;19.90;74.30;;;;;;2347645;52;20953;-74
2021/10/19 10:49:11;;;;;;;3.78;2.25;;;19.90;74.10;;;;;;2350379;53;21061;-74
2021/10/19 10:51:38;;;;;;;4.40;2.37;;;19.90;73.60;;;;;;2347138;53;20954;-73
2021/10/19 10:54:05;;;;;;;4.10;2.08;;;20.00;73.60;;;;;;2370013;53;20970;-73
2021/10/19 10:57:44;;;;;;;4.25;2.00;;;19.90;73.40;;;;;;2335293;54;21766;-75
2021/10/19 11:00:12;;;;;;;3.40;1.98;;;20.00;72.00;;;;;;2341842;53;20981;-75
2021/10/19 11:02:38;;;;;;;4.22;2.00;;;20.00;73.60;;;;;;2403794;53;21011;-75
2021/10/19 11:05:05;;;;;;;3.67;2.12;;;20.00;73.50;;;;;;2329591;54;21928;-74
2021/10/19 11:07:34;;;;;;;4.05;2.25;;;20.10;73.50;;;;;;2331369;54;21102;-74
2021/10/19 11:10:22;;;;;;;4.65;2.08;;;20.10;73.20;;;;;;2336839;53;20949;-73
2021/10/19 11:12:58;;;;;;;3.58;2.12;;;20.20;71.50;;;;;;2326920;54;20965;-72
2021/10/19 11:15:24;;;;;;;5.82;3.10;;;20.20;72.00;;;;;;2329690;54;21045;-75
2021/10/19 11:17:52;;;;;;;7.87;4.43;;;20.20;73.00;;;;;;2527815;52;21107;-74
2021/10/19 11:20:20;;;;;;;5.70;3.40;;;20.20;72.80;;;;;;2319594;54;20929;-74
2021/10/19 11:22:48;;;;;;;6.35;3.45;;;20.30;73.20;;;;;;2332540;53;20956;-72
2021/10/19 11:25:14;;;;;;;4.20;2.28;;;20.40;73.30;;;;;;2325761;54;20943;-73
2021/10/19 11:27:41;;;;;;;5.35;2.60;;;20.40;73.40;;;;;;2350766;53;21061;-74
2021/10/19 11:30:09;;;;;;;6.45;2.75;;;20.50;73.60;;;;;;2334572;53;21057;-74
2021/10/19 11:32:35;;;;;;;5.37;2.50;;;20.60;73.10;;;;;;2369883;54;20932;-75
2021/10/19 11:35:03;;;;;;;4.10;2.10;;;20.70;73.00;;;;;;2342306;54;21036;-73
2021/10/19 11:37:30;;;;;;;4.07;2.20;;;20.80;72.90;;;;;;2396556;53;21012;-74
2021/10/19 11:40:31;;;;;;;3.80;1.62;;;20.80;72.70;;;;;;2345340;53;20987;-73
2021/10/19 11:42:57;;;;;;;4.15;2.10;;;20.90;70.10;;;;;;2376917;53;21080;-75
2021/10/19 11:45:26;;;;;;;4.00;2.03;;;21.00;71.90;;;;;;2323662;54;20957;-73
2021/10/19 11:47:55;;;;;;;3.97;2.20;;;21.00;71.40;;;;;;2323485;54;20933;-75
2021/10/19 11:50:24;;;;;;;3.30;1.90;;;21.10;71.30;;;;;;2327688;54;20965;-74
2021/10/19 11:52:51;;;;;;;4.35;2.20;;;21.10;70.60;;;;;;2400924;53;21481;-74
2021/10/19 11:55:18;;;;;;;4.20;2.22;;;21.10;70.50;;;;;;2322058;54;20997;-74
2021/10/19 11:57:52;;;;;;;3.72;2.20;;;21.10;69.80;;;;;;2323106;54;20977;-75
2021/10/19 12:00:19;;;;;;;3.25;1.73;;;21.10;69.00;;;;;;2321482;54;20989;-74
2021/10/19 12:02:56;;;;;;;3.50;1.85;;;21.10;69.90;;;;;;2345939;53;20923;-75
2021/10/19 12:05:23;;;;;;;4.07;2.00;;;21.20;68.60;;;;;;2300712;54;21009;-74
2021/10/19 12:07:51;;;;;;;3.35;1.85;;;21.20;70.00;;;;;;2324990;54;20937;-75
2021/10/19 12:10:19;;;;;;;6.78;3.83;;;21.20;69.60;;;;;;2425568;53;20994;-74
2021/10/19 12:12:56;;;;;;;7.55;4.45;;;21.20;69.40;;;;;;2390280;53;21112;-75
2021/10/19 12:15:24;;;;;;;6.82;3.78;;;21.20;68.10;;;;;;2373927;53;21047;-74
2021/10/19 12:18:15;;;;;;;4.90;2.58;;;21.20;68.80;;;;;;2320295;54;20973;-74
2021/10/19 12:20:42;;;;;;;4.12;2.28;;;21.20;66.30;;;;;;2531459;52;20952;-74
2021/10/19 12:23:11;;;;;;;4.80;2.15;;;21.10;68.70;;;;;;2346678;53;21038;-76
2021/10/19 12:25:43;;;;;;;4.28;2.37;;;21.20;68.60;;;;;;2355207;53;20948;-74
2021/10/19 12:28:16;;;;;;;4.32;2.00;;;21.20;67.80;;;;;;2331716;54;21877;-75
2021/10/19 12:30:42;;;;;;;4.18;2.05;;;21.20;67.80;;;;;;2349571;53;21452;-75
2021/10/19 12:33:21;;;;;;;3.53;2.03;;;21.20;68.60;;;;;;2347567;53;20945;-75
2021/10/19 12:36:01;;;;;;;4.10;1.95;;;21.30;67.80;;;;;;2345962;53;20979;-74
2021/10/19 12:38:35;;;;;;;3.53;1.70;;;21.30;68.20;;;;;;2355320;52;21300;-74
2021/10/19 12:41:10;;;;;;;3.60;2.00;;;21.30;67.90;;;;;;2346990;53;21066;-75
2021/10/19 12:43:36;;;;;;;3.17;1.62;;;21.40;67.50;;;;;;2348603;53;20954;-75
2021/10/19 12:46:07;;;;;;;2.85;1.52;;;21.40;68.30;;;;;;2346230;53;20982;-75
2021/10/19 12:48:34;;;;;;;5.82;1.50;;;21.40;68.00;;;;;;2371234;53;20973;-74
2021/10/19 12:51:03;;;;;;;3.90;1.70;;;21.50;68.40;;;;;;2353999;53;21101;-75
2021/10/19 12:53:30;;;;;;;3.50;1.77;;;21.50;68.00;;;;;;2351377;53;20978;-74